createdAt,value
2019-02-12T00:02:27.184Z,75.40
2019-02-12T00:04:59.551Z,75.10
2019-02-12T00:07:33.103Z,75.20
2019-02-12T00:10:06.221Z,74.10
2019-02-12T00:12:39.023Z,74.30
2019-02-12T00:15:11.624Z,74.40
2019-02-12T00:17:44.174Z,73.80
2019-02-12T00:20:16.574Z,72.80
2019-02-12T00:22:48.765Z,73.50
2019-02-12T00:25:21.093Z,72.70
2019-02-12T00:27:53.462Z,72.30
2019-02-12T00:30:26.007Z,72.80
2019-02-12T00:32:58.286Z,72.20
2019-02-12T00:35:30.615Z,71.60
2019-02-12T00:38:03.023Z,71.20
2019-02-12T00:40:35.428Z,71.30
2019-02-12T00:43:08.312Z,71.40
2019-02-12T00:45:40.734Z,70.00
2019-02-12T00:48:13.059Z,69.90
2019-02-12T00:50:45.487Z,69.10
2019-02-12T00:53:17.710Z,68.90
2019-02-12T00:55:52.079Z,68.00
2019-02-12T00:58:24.461Z,67.10
2019-02-12T01:00:56.662Z,67.10
2019-02-12T01:03:29.430Z,66.10
2019-02-12T01:06:02.356Z,66.30
2019-02-12T01:08:34.622Z,65.30
2019-02-12T01:11:07.208Z,65.00
2019-02-12T01:13:39.523Z,65.00
2019-02-12T01:16:11.638Z,65.20
2019-02-12T01:18:43.985Z,64.20
2019-02-12T01:21:35.712Z,63.20
2019-02-12T01:24:08.238Z,64.10
2019-02-12T01:26:40.630Z,62.50
2019-02-12T01:29:13.071Z,62.00
2019-02-12T01:31:45.268Z,61.60
2019-02-12T01:34:17.586Z,61.50
2019-02-12T01:36:50.694Z,61.30
2019-02-12T01:39:24.103Z,61.00
2019-02-12T01:41:56.656Z,60.60
2019-02-12T01:44:28.814Z,60.00
2019-02-12T01:47:20.424Z,60.60
2019-02-12T01:49:52.754Z,60.00
2019-02-12T01:52:25.520Z,60.00
2019-02-12T01:54:58.087Z,59.30
2019-02-12T01:57:30.608Z,58.50
2019-02-12T02:00:04.080Z,58.90
2019-02-12T02:02:37.294Z,58.80
2019-02-12T02:05:11.325Z,56.60
2019-02-12T02:07:43.609Z,56.90
2019-02-12T02:10:18.229Z,57.60
2019-02-12T02:12:50.497Z,57.00
2019-02-12T02:15:22.723Z,56.40
2019-02-12T02:17:56.370Z,55.20
2019-02-12T02:20:28.975Z,56.00
2019-02-12T02:23:01.363Z,56.60
2019-02-12T02:25:33.752Z,55.50
2019-02-12T02:28:06.792Z,55.80
2019-02-12T02:30:39.371Z,55.40
2019-02-12T02:33:11.987Z,56.00
2019-02-12T02:35:44.499Z,54.10
2019-02-12T02:38:16.957Z,53.90
2019-02-12T02:40:49.387Z,53.50
2019-02-12T02:43:21.468Z,52.80
2019-02-12T02:45:53.701Z,52.20
2019-02-12T02:48:25.789Z,52.10
2019-02-12T02:51:11.346Z,52.90
2019-02-12T02:53:43.682Z,52.80
2019-02-12T02:56:15.908Z,52.20
2019-02-12T02:58:48.622Z,52.80
2019-02-12T03:01:20.735Z,52.20
2019-02-12T03:03:53.133Z,51.80
2019-02-12T03:06:25.342Z,50.90
2019-02-12T03:09:09.451Z,50.20
2019-02-12T03:11:42.264Z,51.20
2019-02-12T03:14:14.783Z,50.40
2019-02-12T03:16:53.530Z,50.60
2019-02-12T03:19:25.843Z,48.70
2019-02-12T03:22:03.611Z,49.70
2019-02-12T03:24:31.468Z,48.80
2019-02-12T03:27:04.149Z,47.60
2019-02-12T03:29:36.328Z,48.30
2019-02-12T03:32:08.656Z,48.30
2019-02-12T03:34:40.975Z,48.00
2019-02-12T03:37:24.473Z,45.60
2019-02-12T03:39:57.571Z,47.30
2019-02-12T03:42:29.793Z,46.90
2019-02-12T03:45:02.053Z,46.30
2019-02-12T03:47:34.164Z,46.30
2019-02-12T03:50:18.604Z,46.80
2019-02-12T03:52:50.826Z,45.70
2019-02-12T03:55:23.115Z,45.20
2019-02-12T03:57:56.058Z,45.20
2019-02-12T04:00:28.465Z,46.90
2019-02-12T04:03:03.125Z,46.00
2019-02-12T04:05:37.213Z,44.60
2019-02-12T04:08:09.914Z,45.10
2019-02-12T04:10:42.469Z,44.20
2019-02-12T04:13:15.199Z,45.30
2019-02-12T04:15:59.467Z,43.20
2019-02-12T04:18:31.590Z,44.60
2019-02-12T04:21:03.956Z,44.40
2019-02-12T04:23:36.505Z,44.40
2019-02-12T04:26:27.700Z,44.90
2019-02-12T04:29:00.141Z,45.00
2019-02-12T04:31:33.308Z,43.30
2019-02-12T04:34:05.659Z,42.70
2019-02-12T04:36:37.820Z,42.20
2019-02-12T04:39:10.405Z,42.20
2019-02-12T04:41:42.844Z,42.50
2019-02-12T04:44:17.467Z,41.90
2019-02-12T04:46:50.449Z,42.00
2019-02-12T04:49:22.612Z,43.70
2019-02-12T04:51:54.774Z,43.50
2019-02-12T04:54:27.501Z,43.40
2019-02-12T04:57:00.103Z,44.90
2019-02-12T04:59:32.553Z,41.90
2019-02-12T05:02:04.848Z,41.60
2019-02-12T05:04:37.235Z,40.90
2019-02-12T05:07:09.572Z,40.60
2019-02-12T05:09:44.108Z,40.40
2019-02-12T05:12:18.350Z,39.80
2019-02-12T05:14:50.527Z,39.30
2019-02-12T05:17:36.016Z,41.20
2019-02-12T05:20:20.783Z,41.60
2019-02-12T05:22:53.030Z,40.20
2019-02-12T05:25:25.149Z,41.20
2019-02-12T05:27:57.329Z,38.90
2019-02-12T05:30:30.709Z,39.60
2019-02-12T05:33:04.144Z,41.30
2019-02-12T05:35:39.497Z,39.20
2019-02-12T05:38:12.018Z,40.20
2019-02-12T05:40:44.108Z,39.90
2019-02-12T05:43:28.873Z,38.70
2019-02-12T05:46:14.210Z,40.80
2019-02-12T05:48:46.848Z,39.80
2019-02-12T05:51:19.262Z,39.70
2019-02-12T05:53:51.594Z,38.40
2019-02-12T05:56:23.850Z,40.20
2019-02-12T05:58:56.454Z,38.30
2019-02-12T06:01:28.700Z,37.20
2019-02-12T06:04:00.997Z,36.90
2019-02-12T06:06:33.422Z,37.60
2019-02-12T06:09:06.228Z,38.00
2019-02-12T06:11:38.841Z,37.00
2019-02-12T06:14:11.142Z,38.50
2019-02-12T06:16:43.664Z,36.70
2019-02-12T06:19:15.853Z,37.20
2019-02-12T06:21:48.476Z,37.70
2019-02-12T06:24:20.558Z,36.80
2019-02-12T06:26:53.607Z,37.10
2019-02-12T06:29:25.823Z,36.70
2019-02-12T06:32:10.876Z,36.90
2019-02-12T06:34:45.308Z,36.60
2019-02-12T06:37:18.051Z,37.20
2019-02-12T06:40:02.637Z,35.10
2019-02-12T06:42:34.908Z,34.80
2019-02-12T06:45:09.622Z,35.00
2019-02-12T06:47:41.832Z,35.40
2019-02-12T06:50:15.305Z,34.30
2019-02-12T06:52:47.420Z,34.10
2019-02-12T06:55:19.571Z,35.60
2019-02-12T06:57:51.954Z,36.60
2019-02-12T07:00:24.483Z,37.40
2019-02-12T07:02:59.495Z,36.80
2019-02-12T07:05:31.868Z,36.80
2019-02-12T07:08:07.213Z,36.10
2019-02-12T07:10:39.627Z,36.80
2019-02-12T07:13:14.156Z,35.70
2019-02-12T07:15:46.512Z,37.00
2019-02-12T07:18:21.155Z,36.30
2019-02-12T07:20:55.792Z,37.40
2019-02-12T07:23:30.398Z,34.40
2019-02-12T07:26:05.056Z,34.80
2019-02-12T07:28:39.510Z,34.70
2019-02-12T07:31:14.296Z,33.80
2019-02-12T07:33:48.729Z,34.20
2019-02-12T07:36:23.580Z,34.70
2019-02-12T07:38:58.461Z,34.40
2019-02-12T07:41:33.011Z,36.50
2019-02-12T07:44:08.585Z,34.00
2019-02-12T07:46:43.143Z,34.40
2019-02-12T07:49:36.155Z,35.90
2019-02-12T07:52:10.939Z,36.70
2019-02-12T07:54:45.518Z,35.00
2019-02-12T07:57:20.416Z,34.40
2019-02-12T07:59:55.158Z,35.80
2019-02-12T08:02:38.227Z,36.30
2019-02-12T08:05:30.576Z,34.40
2019-02-12T08:08:16.375Z,33.60
2019-02-12T08:10:50.925Z,35.80
2019-02-12T08:13:25.544Z,33.80
2019-02-12T08:15:59.973Z,35.50
2019-02-12T08:18:34.769Z,34.30
2019-02-12T08:21:09.865Z,34.70
2019-02-12T08:23:44.429Z,35.00
2019-02-12T08:26:18.868Z,33.90
2019-02-12T08:28:53.465Z,33.80
2019-02-12T08:31:28.246Z,35.10
2019-02-12T08:34:03.416Z,36.40
2019-02-12T08:36:56.148Z,35.20
2019-02-12T08:39:42.438Z,34.50
2019-02-12T08:42:17.229Z,36.90
2019-02-12T08:44:51.836Z,35.20
2019-02-12T08:47:26.332Z,35.60
2019-02-12T08:50:00.837Z,35.60
2019-02-12T08:52:35.987Z,35.80
2019-02-12T08:55:37.578Z,37.40
2019-02-12T08:58:12.069Z,36.10
2019-02-12T09:00:57.837Z,36.10
2019-02-12T09:03:33.893Z,35.10
2019-02-12T09:06:08.442Z,36.40
2019-02-12T09:08:43.527Z,35.50
2019-02-12T09:11:29.470Z,35.80
2019-02-12T09:14:04.193Z,35.20
2019-02-12T09:16:39.075Z,35.50
2019-02-12T09:19:13.628Z,36.60
2019-02-12T09:21:49.293Z,36.20
2019-02-12T09:24:24.232Z,37.00
2019-02-12T09:26:58.722Z,37.50
2019-02-12T09:29:33.293Z,36.80
2019-02-12T09:32:07.759Z,36.90
2019-02-12T09:34:43.752Z,37.20
2019-02-12T09:37:18.234Z,37.60
2019-02-12T09:40:04.118Z,37.50
2019-02-12T09:42:38.761Z,37.10
2019-02-12T09:45:13.454Z,36.20
2019-02-12T09:47:48.200Z,36.30
2019-02-12T09:50:22.668Z,35.90
2019-02-12T09:52:57.150Z,36.80
2019-02-12T09:55:31.775Z,37.00
2019-02-12T09:58:06.337Z,38.50
2019-02-12T10:00:41.027Z,37.90
2019-02-12T10:03:15.695Z,38.00
2019-02-12T10:06:08.754Z,38.00
2019-02-12T10:08:44.095Z,37.80
2019-02-12T10:11:18.911Z,38.20
2019-02-12T10:13:53.833Z,38.40
2019-02-12T10:16:28.305Z,38.50
2019-02-12T10:19:02.927Z,38.50
2019-02-12T10:21:38.966Z,38.70
2019-02-12T10:24:19.640Z,39.00
2019-02-12T10:26:49.596Z,38.70
2019-02-12T10:29:24.248Z,39.60
2019-02-12T10:32:15.086Z,41.70
2019-02-12T10:34:47.457Z,39.80
2019-02-12T10:37:19.589Z,40.60
2019-02-12T10:39:52.086Z,40.40
2019-02-12T10:42:24.226Z,41.10
2019-02-12T10:44:56.590Z,42.00
2019-02-12T10:47:29.068Z,41.60
2019-02-12T10:50:01.729Z,41.40
2019-02-12T10:52:34.708Z,43.00
2019-02-12T10:55:08.143Z,46.30
2019-02-12T10:57:40.447Z,43.30
2019-02-12T11:00:14.746Z,44.30
2019-02-12T11:02:47.251Z,44.40
2019-02-12T11:05:20.322Z,44.70
2019-02-12T11:07:52.743Z,45.30
2019-02-12T11:10:25.785Z,44.70
2019-02-12T11:12:58.214Z,45.90
2019-02-12T11:15:30.645Z,45.70
2019-02-12T11:18:02.947Z,46.30
2019-02-12T11:20:36.039Z,46.70
2019-02-12T11:23:08.611Z,46.50
2019-02-12T11:25:41.338Z,46.20
2019-02-12T11:28:13.651Z,45.70
2019-02-12T11:30:46.000Z,46.80
2019-02-12T11:33:18.261Z,47.70
2019-02-12T11:35:50.900Z,46.20
2019-02-12T11:38:23.419Z,46.70
2019-02-12T11:40:56.035Z,47.60
2019-02-12T11:43:28.253Z,47.70
2019-02-12T11:46:00.729Z,48.70
2019-02-12T11:48:33.167Z,49.40
2019-02-12T11:51:05.830Z,48.60
2019-02-12T11:53:38.338Z,49.70
2019-02-12T11:56:10.520Z,49.40
2019-02-12T11:58:43.259Z,51.00
2019-02-12T12:01:16.677Z,51.60
2019-02-12T12:03:49.113Z,50.10
2019-02-12T12:06:21.756Z,51.30
2019-02-12T12:08:54.322Z,50.90
2019-02-12T12:11:26.977Z,50.30
2019-02-12T12:13:59.710Z,51.20
2019-02-12T12:16:32.561Z,50.90
2019-02-12T12:19:05.418Z,50.60
2019-02-12T12:21:37.659Z,50.10
2019-02-12T12:24:10.099Z,50.10
2019-02-12T12:26:42.426Z,50.40
2019-02-12T12:29:27.372Z,50.30
2019-02-12T12:31:59.642Z,50.50
2019-02-12T12:34:32.132Z,51.30
2019-02-12T12:37:04.875Z,52.10
2019-02-12T12:39:37.203Z,50.90
2019-02-12T12:42:09.804Z,52.00
2019-02-12T12:44:43.134Z,51.10
2019-02-12T12:47:15.637Z,51.50
2019-02-12T12:49:48.148Z,51.50
2019-02-12T12:52:21.194Z,51.60
2019-02-12T12:54:59.766Z,51.90
2019-02-12T12:57:27.148Z,51.70
2019-02-12T12:59:59.478Z,52.30
2019-02-12T13:02:31.799Z,52.50
2019-02-12T13:05:04.515Z,52.30
2019-02-12T13:07:36.997Z,50.90
2019-02-12T13:10:11.982Z,52.00
2019-02-12T13:13:04.805Z,51.50
2019-02-12T13:15:38.554Z,52.20
2019-02-12T13:18:10.777Z,52.90
2019-02-12T13:20:43.365Z,53.10
2019-02-12T13:23:16.126Z,52.80
2019-02-12T13:25:48.357Z,52.70
2019-02-12T13:28:20.514Z,53.00
2019-02-12T13:30:52.844Z,53.50
2019-02-12T13:33:26.528Z,54.00
2019-02-12T13:35:58.683Z,54.00
2019-02-12T13:38:30.852Z,54.60
2019-02-12T13:41:03.087Z,54.80
2019-02-12T13:43:35.540Z,54.30
2019-02-12T13:46:07.658Z,53.60
2019-02-12T13:48:40.260Z,53.90
2019-02-12T13:51:12.387Z,55.50
2019-02-12T13:53:44.638Z,54.50
2019-02-12T13:56:17.059Z,54.50
2019-02-12T13:58:49.438Z,55.80
2019-02-12T14:01:21.806Z,55.40
2019-02-12T14:03:54.185Z,56.00
2019-02-12T14:06:26.688Z,57.50
2019-02-12T14:08:58.873Z,58.30
2019-02-12T14:11:31.452Z,56.50
2019-02-12T14:14:05.079Z,56.20
2019-02-12T14:16:37.263Z,56.00
2019-02-12T14:19:10.012Z,55.90
2019-02-12T14:21:42.611Z,55.10
2019-02-12T14:24:15.423Z,55.20
2019-02-12T14:26:47.528Z,55.10
2019-02-12T14:29:20.042Z,56.30
2019-02-12T14:31:53.207Z,56.80
2019-02-12T14:34:25.709Z,57.90
2019-02-12T14:36:58.763Z,58.40
2019-02-12T14:39:30.948Z,57.80
2019-02-12T14:42:03.451Z,57.50
2019-02-12T14:44:36.594Z,57.60
2019-02-12T14:47:09.054Z,58.10
2019-02-12T14:49:41.753Z,59.70
2019-02-12T14:52:14.071Z,60.30
2019-02-12T14:54:47.201Z,59.30
2019-02-12T14:57:19.367Z,59.10
2019-02-12T14:59:52.392Z,58.60
2019-02-12T15:02:24.814Z,59.20
2019-02-12T15:05:00.548Z,60.00
2019-02-12T15:07:31.360Z,59.60
2019-02-12T15:10:03.595Z,59.20
2019-02-12T15:12:35.821Z,58.50
2019-02-12T15:15:10.539Z,58.50
2019-02-12T15:17:43.214Z,58.90
2019-02-12T15:20:16.134Z,58.10
2019-02-12T15:22:48.356Z,57.20
2019-02-12T15:25:20.508Z,57.20
2019-02-12T15:27:52.987Z,57.00
2019-02-12T15:30:25.292Z,57.20
2019-02-12T15:32:57.611Z,56.70
2019-02-12T15:35:29.935Z,56.70
2019-02-12T15:38:02.428Z,57.00
2019-02-12T15:40:34.683Z,56.90
2019-02-12T15:43:06.807Z,56.70
2019-02-12T15:45:39.454Z,56.90
2019-02-12T15:48:11.969Z,56.90
2019-02-12T15:50:44.276Z,57.20
2019-02-12T15:53:16.410Z,57.20
2019-02-12T15:55:51.338Z,57.70
2019-02-12T15:58:22.532Z,58.50
2019-02-12T16:00:54.874Z,58.40
2019-02-12T16:03:27.130Z,58.90
2019-02-12T16:05:59.768Z,58.70
2019-02-12T16:08:32.151Z,59.00
2019-02-12T16:11:04.636Z,59.00
2019-02-12T16:13:37.330Z,59.20
2019-02-12T16:16:09.966Z,59.70
2019-02-12T16:18:43.435Z,59.60
2019-02-12T16:21:16.050Z,59.60
2019-02-12T16:23:48.302Z,60.30
2019-02-12T16:26:20.774Z,60.40
2019-02-12T16:28:53.044Z,60.70
2019-02-12T16:31:25.767Z,60.80
2019-02-12T16:33:58.269Z,61.00
2019-02-12T16:36:30.652Z,61.10
2019-02-12T16:39:03.100Z,61.20
2019-02-12T16:41:37.073Z,61.30
2019-02-12T16:44:12.187Z,61.90
2019-02-12T16:46:44.604Z,61.50
2019-02-12T16:49:16.967Z,61.60
2019-02-12T16:51:49.464Z,61.70
2019-02-12T16:54:22.103Z,62.40
2019-02-12T16:56:54.392Z,62.20
2019-02-12T16:59:27.127Z,62.40
2019-02-12T17:01:59.732Z,62.60
2019-02-12T17:04:32.015Z,62.50
2019-02-12T17:07:04.206Z,62.10
2019-02-12T17:09:36.776Z,62.30
2019-02-12T17:12:09.080Z,62.50
2019-02-12T17:14:41.819Z,62.90
2019-02-12T17:17:14.280Z,62.50
2019-02-12T17:19:46.979Z,62.50
2019-02-12T17:22:19.232Z,62.10
2019-02-12T17:24:52.107Z,62.50
2019-02-12T17:27:24.465Z,63.00
2019-02-12T17:29:57.230Z,63.10
2019-02-12T17:32:30.527Z,63.50
2019-02-12T17:35:02.822Z,63.20
2019-02-12T17:37:35.137Z,63.60
2019-02-12T17:40:10.539Z,64.10
2019-02-12T17:42:42.957Z,64.20
2019-02-12T17:45:16.888Z,64.30
2019-02-12T17:47:49.355Z,63.90
2019-02-12T17:50:21.999Z,64.20
2019-02-12T17:52:54.220Z,64.00
2019-02-12T17:55:26.834Z,64.20
2019-02-12T17:57:59.372Z,64.30
2019-02-12T18:00:32.984Z,64.30
2019-02-12T18:03:05.137Z,65.00
2019-02-12T18:05:37.455Z,64.70
2019-02-12T18:08:09.563Z,64.60
2019-02-12T18:10:42.086Z,64.80
2019-02-12T18:13:14.314Z,65.20
2019-02-12T18:15:46.645Z,65.00
2019-02-12T18:28:55.404Z,65.20
2019-02-12T18:31:28.518Z,65.40
2019-02-12T18:34:01.174Z,65.70
2019-02-12T18:36:33.524Z,66.00
2019-02-12T18:39:08.912Z,67.00
2019-02-12T18:41:41.443Z,66.10
2019-02-12T18:44:13.905Z,66.40
2019-02-12T18:46:46.120Z,66.30
2019-02-12T18:49:18.511Z,66.20
2019-02-12T18:51:50.931Z,66.00
2019-02-12T18:54:23.770Z,65.90
2019-02-12T18:56:56.075Z,66.00
2019-02-12T18:59:28.861Z,66.30
2019-02-12T19:02:01.796Z,66.60
2019-02-12T19:04:34.533Z,66.60
2019-02-12T19:07:07.063Z,66.70
2019-02-12T19:09:39.704Z,67.00
2019-02-12T19:12:11.982Z,67.40
2019-02-12T19:14:44.258Z,67.50
2019-02-12T19:17:16.613Z,67.90
2019-02-12T19:19:49.228Z,68.50
2019-02-12T19:22:23.514Z,67.80
2019-02-12T19:24:55.713Z,67.90
2019-02-12T19:27:28.091Z,67.90
2019-02-12T19:30:00.536Z,68.30
2019-02-12T19:32:33.930Z,68.20
2019-02-12T19:35:07.618Z,68.20
2019-02-12T19:37:39.864Z,67.80
2019-02-12T19:40:13.737Z,67.80
2019-02-12T19:42:46.353Z,70.00
2019-02-12T19:45:19.750Z,70.50
2019-02-12T19:47:52.216Z,70.30
2019-02-12T19:50:24.666Z,70.40
2019-02-12T19:52:56.998Z,70.40
2019-02-12T19:55:29.310Z,71.50
2019-02-12T19:58:01.617Z,71.10
2019-02-12T20:00:33.958Z,70.70
2019-02-12T20:03:06.622Z,70.90
2019-02-12T20:05:39.470Z,71.00
2019-02-12T20:08:11.678Z,70.60
2019-02-12T20:10:44.172Z,71.00
2019-02-12T20:13:16.987Z,71.90
2019-02-12T20:15:49.460Z,71.80
2019-02-12T20:18:21.857Z,71.70
2019-02-12T20:20:54.297Z,71.30
2019-02-12T20:23:26.580Z,71.50
2019-02-12T20:25:59.991Z,71.70
2019-02-12T20:28:32.191Z,71.60
2019-02-12T20:31:04.516Z,71.70
2019-02-12T20:33:36.719Z,71.60
2019-02-12T20:36:09.374Z,72.20
2019-02-12T20:38:41.739Z,71.50
2019-02-12T20:41:14.230Z,71.60
2019-02-12T20:43:46.535Z,72.10
2019-02-12T20:46:18.864Z,72.30
2019-02-12T20:48:51.172Z,73.10
2019-02-12T20:51:23.790Z,73.00
2019-02-12T20:53:56.264Z,73.10
2019-02-12T20:56:29.397Z,73.80
2019-02-12T20:59:01.711Z,73.50
2019-02-12T21:01:34.408Z,74.00
2019-02-12T21:04:06.881Z,73.70
2019-02-12T21:06:39.117Z,73.60
2019-02-12T21:09:11.556Z,73.50
2019-02-12T21:11:44.086Z,73.00
2019-02-12T21:14:16.808Z,74.40
2019-02-12T21:16:49.145Z,74.20
2019-02-12T21:19:21.493Z,74.40
2019-02-12T21:21:53.872Z,74.20
2019-02-12T21:24:26.614Z,74.40
2019-02-12T21:26:59.030Z,74.10
2019-02-12T21:29:31.582Z,74.20
2019-02-12T21:32:04.268Z,73.90
2019-02-12T21:34:36.962Z,74.30
2019-02-12T21:37:09.664Z,74.40
2019-02-12T21:39:42.269Z,75.10
2019-02-12T21:42:14.644Z,74.30
2019-02-12T21:44:47.026Z,74.60
2019-02-12T21:47:19.438Z,74.30
2019-02-12T21:49:51.849Z,74.70
2019-02-12T21:52:24.247Z,74.70
2019-02-12T21:54:56.661Z,75.10
2019-02-12T21:57:31.811Z,76.10
2019-02-12T22:00:02.959Z,76.70
2019-02-12T22:02:37.366Z,76.70
2019-02-12T22:05:12.227Z,76.60
2019-02-12T22:07:45.022Z,75.90
2019-02-12T22:10:19.559Z,75.80
2019-02-12T22:12:52.043Z,76.70
2019-02-12T22:15:24.467Z,76.40
2019-02-12T22:17:56.962Z,76.00
2019-02-12T22:20:29.362Z,76.10
2019-02-12T22:23:02.126Z,76.00
2019-02-12T22:25:34.582Z,76.10
2019-02-12T22:28:07.121Z,76.20
2019-02-12T22:30:39.471Z,76.60
2019-02-12T22:33:12.143Z,76.90
2019-02-12T22:35:44.519Z,77.10
2019-02-12T22:38:16.823Z,77.00
2019-02-12T22:40:49.347Z,77.20
2019-02-12T22:43:22.082Z,76.70
2019-02-12T22:45:54.409Z,77.10
2019-02-12T22:48:26.925Z,77.50
2019-02-12T22:50:59.270Z,77.40
2019-02-12T22:53:31.614Z,77.40
2019-02-12T22:56:03.700Z,77.50
2019-02-12T22:58:36.934Z,77.80
2019-02-12T23:01:10.226Z,77.70
2019-02-12T23:03:43.562Z,77.80
2019-02-12T23:06:15.957Z,77.80
2019-02-12T23:08:48.321Z,77.20
2019-02-12T23:11:20.652Z,77.80
2019-02-12T23:13:53.120Z,78.60
2019-02-12T23:16:25.619Z,78.50
2019-02-12T23:18:57.945Z,78.70
2019-02-12T23:21:30.477Z,79.20
2019-02-12T23:24:03.188Z,79.30
2019-02-12T23:26:35.582Z,79.10
2019-02-12T23:29:45.434Z,78.90
2019-02-12T23:32:18.318Z,78.50
2019-02-12T23:34:56.962Z,78.40
2019-02-12T23:37:25.279Z,79.20
2019-02-12T23:39:57.519Z,79.80
2019-02-12T23:42:32.931Z,79.30
2019-02-12T23:45:06.431Z,79.80
2019-02-12T23:47:38.751Z,79.50
2019-02-12T23:50:12.854Z,80.20
2019-02-12T23:52:45.181Z,80.10
2019-02-12T23:55:18.601Z,80.70
2019-02-12T23:57:50.902Z,79.20
